sensor_id;sensor_type;location;lat;lon;timestamp;pressure;altitude;pressure_sealevel;temperature;humidity
12486;BME280;6307;46.804;11.580;2022-08-27T00:00:50;-21393.84;;;18.06;100.00
12486;BME280;6307;46.804;11.580;2022-08-27T00:03:17;-21390.56;;;17.95;100.00
12486;BME280;6307;46.804;11.580;2022-08-27T00:05:43;-21390.13;;;17.93;100.00
12486;BME280;6307;46.804;11.580;2022-08-27T00:08:11;-21389.38;;;17.91;100.00
12486;BME280;6307;46.804;11.580;2022-08-27T00:10:37;-21392.66;;;18.02;100.00
12486;BME280;6307;46.804;11.580;2022-08-27T00:13:04;-21395.34;;;18.11;100.00
12486;BME280;6307;46.804;11.580;2022-08-27T00:15:31;-21391.91;;;17.99;100.00
12486;BME280;6307;46.804;11.580;2022-08-27T00:17:57;-21392.66;;;18.02;100.00
12486;BME280;6307;46.804;11.580;2022-08-27T00:20:25;-21394.75;;;18.09;100.00
12486;BME280;6307;46.804;11.580;2022-08-27T00:22:52;-21390.72;;;17.95;100.00
12486;BME280;6307;46.804;11.580;2022-08-27T00:25:19;-21396.84;;;18.16;100.00
12486;BME280;6307;46.804;11.580;2022-08-27T00:27:46;-21395.66;;;18.12;100.00
12486;BME280;6307;46.804;11.580;2022-08-27T00:30:15;-21393.25;;;18.04;100.00
12486;BME280;6307;46.804;11.580;2022-08-27T00:32:43;-21390.56;;;17.95;100.00
12486;BME280;6307;46.804;11.580;2022-08-27T00:35:11;-21385.22;;;17.77;100.00
12486;BME280;6307;46.804;11.580;2022-08-27T00:37:38;-21387.16;;;17.83;100.00
12486;BME280;6307;46.804;11.580;2022-08-27T00:40:07;-21384.91;;;17.76;100.00
12486;BME280;6307;46.804;11.580;2022-08-27T00:42:35;-21385.66;;;17.78;100.00
12486;BME280;6307;46.804;11.580;2022-08-27T00:45:03;-21384.63;;;17.75;100.00
12486;BME280;6307;46.804;11.580;2022-08-27T00:47:31;-21385.06;;;17.76;100.00
12486;BME280;6307;46.804;11.580;2022-08-27T00:50:08;-21384.31;;;17.74;100.00
12486;BME280;6307;46.804;11.580;2022-08-27T00:52:50;-21384.16;;;17.73;100.00
12486;BME280;6307;46.804;11.580;2022-08-27T00:55:26;-21386.25;;;17.80;100.00
12486;BME280;6307;46.804;11.580;2022-08-27T00:58:17;-21386.69;;;17.82;100.00
12486;BME280;6307;46.804;11.580;2022-08-27T01:00:49;-21387.59;;;17.85;100.00
12486;BME280;6307;46.804;11.580;2022-08-27T01:03:16;-21385.97;;;17.79;100.00
12486;BME280;6307;46.804;11.580;2022-08-27T01:05:43;-21381.94;;;17.66;100.00
12486;BME280;6307;46.804;11.580;2022-08-27T01:08:14;-21381.03;;;17.63;100.00
12486;BME280;6307;46.804;11.580;2022-08-27T01:10:44;-21375.06;;;17.43;100.00
12486;BME280;6307;46.804;11.580;2022-08-27T01:13:14;-21372.38;;;17.34;100.00
12486;BME280;6307;46.804;11.580;2022-08-27T01:15:43;-21373.44;;;17.37;100.00
12486;BME280;6307;46.804;11.580;2022-08-27T01:18:10;-21377.63;;;17.51;100.00
12486;BME280;6307;46.804;11.580;2022-08-27T01:26:53;-21379.41;;;17.57;100.00
12486;BME280;6307;46.804;11.580;2022-08-27T01:29:20;-21378.94;;;17.56;100.00
12486;BME280;6307;46.804;11.580;2022-08-27T01:31:47;-21377.47;;;17.51;100.00
12486;BME280;6307;46.804;11.580;2022-08-27T01:34:13;-21373.88;;;17.39;100.00
12486;BME280;6307;46.804;11.580;2022-08-27T01:36:39;-21372.97;;;17.36;100.00
12486;BME280;6307;46.804;11.580;2022-08-27T01:39:06;-21374.19;;;17.40;100.00
12486;BME280;6307;46.804;11.580;2022-08-27T01:41:32;-21373.13;;;17.36;100.00
12486;BME280;6307;46.804;11.580;2022-08-27T01:43:59;-21374.19;;;17.40;100.00
12486;BME280;6307;46.804;11.580;2022-08-27T01:46:26;-21374.03;;;17.39;100.00
12486;BME280;6307;46.804;11.580;2022-08-27T01:48:54;-21374.63;;;17.41;100.00
12486;BME280;6307;46.804;11.580;2022-08-27T01:51:21;-21373.13;;;17.36;100.00
12486;BME280;6307;46.804;11.580;2022-08-27T01:53:47;-21372.97;;;17.36;100.00
12486;BME280;6307;46.804;11.580;2022-08-27T01:56:14;-21372.69;;;17.35;100.00
12486;BME280;6307;46.804;11.580;2022-08-27T01:58:40;-21374.47;;;17.41;100.00
12486;BME280;6307;46.804;11.580;2022-08-27T02:01:10;-21372.38;;;17.34;100.00
12486;BME280;6307;46.804;11.580;2022-08-27T02:03:39;-21370.16;;;17.26;100.00
12486;BME280;6307;46.804;11.580;2022-08-27T02:06:08;-21368.66;;;17.21;100.00
12486;BME280;6307;46.804;11.580;2022-08-27T02:08:36;-21372.38;;;17.34;100.00
12486;BME280;6307;46.804;11.580;2022-08-27T02:11:03;-21373.44;;;17.37;100.00
12486;BME280;6307;46.804;11.580;2022-08-27T02:13:29;-21372.84;;;17.35;100.00
12486;BME280;6307;46.804;11.580;2022-08-27T02:15:55;-21372.97;;;17.36;100.00
12486;BME280;6307;46.804;11.580;2022-08-27T02:18:22;-21370.00;;;17.26;100.00
12486;BME280;6307;46.804;11.580;2022-08-27T02:20:48;-21372.25;;;17.33;100.00
12486;BME280;6307;46.804;11.580;2022-08-27T02:23:17;-21370.91;;;17.29;100.00
12486;BME280;6307;46.804;11.580;2022-08-27T02:25:43;-21371.50;;;17.31;100.00
12486;BME280;6307;46.804;11.580;2022-08-27T02:28:11;-21371.19;;;17.30;100.00
12486;BME280;6307;46.804;11.580;2022-08-27T02:30:38;-21368.66;;;17.21;100.00
12486;BME280;6307;46.804;11.580;2022-08-27T02:33:04;-21366.72;;;17.15;100.00
12486;BME280;6307;46.804;11.580;2022-08-27T02:35:32;-21368.97;;;17.22;100.00
12486;BME280;6307;46.804;11.580;2022-08-27T02:38:01;-21366.56;;;17.14;100.00
12486;BME280;6307;46.804;11.580;2022-08-27T02:40:27;-21365.09;;;17.09;100.00
12486;BME280;6307;46.804;11.580;2022-08-27T02:42:53;-21369.56;;;17.24;100.00
12486;BME280;6307;46.804;11.580;2022-08-27T02:45:20;-21372.09;;;17.33;100.00
12486;BME280;6307;46.804;11.580;2022-08-27T02:47:46;-21372.84;;;17.35;100.00
12486;BME280;6307;46.804;11.580;2022-08-27T02:50:12;-21369.84;;;17.25;100.00
12486;BME280;6307;46.804;11.580;2022-08-27T02:52:39;-21366.13;;;17.13;100.00
12486;BME280;6307;46.804;11.580;2022-08-27T02:55:06;-21362.53;;;17.01;100.00
12486;BME280;6307;46.804;11.580;2022-08-27T02:57:33;-21362.84;;;17.02;100.00
12486;BME280;6307;46.804;11.580;2022-08-27T02:59:59;-21362.84;;;17.02;100.00
12486;BME280;6307;46.804;11.580;2022-08-27T03:02:26;-21362.84;;;17.02;100.00
12486;BME280;6307;46.804;11.580;2022-08-27T03:04:52;-21361.66;;;16.98;100.00
12486;BME280;6307;46.804;11.580;2022-08-27T03:07:18;-21364.47;;;17.07;100.00
12486;BME280;6307;46.804;11.580;2022-08-27T03:09:47;-21362.09;;;16.99;100.00
12486;BME280;6307;46.804;11.580;2022-08-27T03:12:13;-21367.16;;;17.16;100.00
12486;BME280;6307;46.804;11.580;2022-08-27T03:14:40;-21368.34;;;17.20;100.00
12486;BME280;6307;46.804;11.580;2022-08-27T03:17:06;-21366.44;;;17.14;100.00
12486;BME280;6307;46.804;11.580;2022-08-27T03:19:50;-21367.03;;;17.16;100.00
12486;BME280;6307;46.804;11.580;2022-08-27T03:22:17;-21364.34;;;17.07;100.00
12486;BME280;6307;46.804;11.580;2022-08-27T03:24:43;-21363.00;;;17.02;100.00
12486;BME280;6307;46.804;11.580;2022-08-27T03:27:10;-21361.06;;;16.96;100.00
12486;BME280;6307;46.804;11.580;2022-08-27T03:29:36;-21359.56;;;16.91;100.00
12486;BME280;6307;46.804;11.580;2022-08-27T03:32:05;-21356.13;;;16.79;100.00
12486;BME280;6307;46.804;11.580;2022-08-27T03:34:32;-21357.47;;;16.84;100.00
12486;BME280;6307;46.804;11.580;2022-08-27T03:36:58;-21355.84;;;16.78;100.00
12486;BME280;6307;46.804;11.580;2022-08-27T03:39:25;-21352.69;;;16.68;100.00
12486;BME280;6307;46.804;11.580;2022-08-27T03:41:51;-21355.09;;;16.76;100.00
12486;BME280;6307;46.804;11.580;2022-08-27T03:44:18;-21354.34;;;16.73;100.00
12486;BME280;6307;46.804;11.580;2022-08-27T03:46:44;-21354.03;;;16.72;100.00
12486;BME280;6307;46.804;11.580;2022-08-27T03:49:10;-21355.25;;;16.76;100.00
12486;BME280;6307;46.804;11.580;2022-08-27T03:51:37;-21354.19;;;16.73;100.00
12486;BME280;6307;46.804;11.580;2022-08-27T03:54:03;-21351.81;;;16.65;100.00
12486;BME280;6307;46.804;11.580;2022-08-27T03:56:29;-21351.22;;;16.63;100.00
12486;BME280;6307;46.804;11.580;2022-08-27T03:59:03;-21348.22;;;16.53;100.00
12486;BME280;6307;46.804;11.580;2022-08-27T04:01:30;-21350.00;;;16.59;100.00
12486;BME280;6307;46.804;11.580;2022-08-27T04:03:56;-21348.38;;;16.53;100.00
12486;BME280;6307;46.804;11.580;2022-08-27T04:06:23;-21349.28;;;16.56;100.00
12486;BME280;6307;46.804;11.580;2022-08-27T04:08:49;-21349.56;;;16.57;100.00
12486;BME280;6307;46.804;11.580;2022-08-27T04:11:15;-21349.13;;;16.56;100.00
12486;BME280;6307;46.804;11.580;2022-08-27T04:13:41;-21350.63;;;16.61;100.00
12486;BME280;6307;46.804;11.580;2022-08-27T04:16:08;-21349.72;;;16.58;100.00
12486;BME280;6307;46.804;11.580;2022-08-27T04:18:35;-21349.72;;;16.58;100.00
12486;BME280;6307;46.804;11.580;2022-08-27T04:21:09;-21349.13;;;16.56;100.00
12486;BME280;6307;46.804;11.580;2022-08-27T04:23:38;-21350.00;;;16.59;100.00
12486;BME280;6307;46.804;11.580;2022-08-27T04:26:07;-21349.56;;;16.57;100.00
12486;BME280;6307;46.804;11.580;2022-08-27T04:28:35;-21346.28;;;16.46;100.00
12486;BME280;6307;46.804;11.580;2022-08-27T04:31:02;-21347.31;;;16.50;100.00
12486;BME280;6307;46.804;11.580;2022-08-27T04:33:29;-21346.88;;;16.48;100.00
12486;BME280;6307;46.804;11.580;2022-08-27T04:36:02;-21346.72;;;16.48;100.00
12486;BME280;6307;46.804;11.580;2022-08-27T04:38:31;-21344.94;;;16.42;100.00
12486;BME280;6307;46.804;11.580;2022-08-27T04:40:57;-21345.84;;;16.45;100.00
12486;BME280;6307;46.804;11.580;2022-08-27T04:43:51;-21345.25;;;16.43;100.00
12486;BME280;6307;46.804;11.580;2022-08-27T04:46:31;-21344.94;;;16.42;100.00
12486;BME280;6307;46.804;11.580;2022-08-27T04:49:01;-21347.19;;;16.49;100.00
12486;BME280;6307;46.804;11.580;2022-08-27T04:51:30;-21342.41;;;16.33;100.00
12486;BME280;6307;46.804;11.580;2022-08-27T04:53:56;-21344.34;;;16.40;100.00
12486;BME280;6307;46.804;11.580;2022-08-27T04:56:23;-21345.53;;;16.44;100.00
12486;BME280;6307;46.804;11.580;2022-08-27T04:58:50;-21344.94;;;16.42;100.00
12486;BME280;6307;46.804;11.580;2022-08-27T05:01:25;-21350.00;;;16.59;100.00
12486;BME280;6307;46.804;11.580;2022-08-27T05:03:53;-21349.72;;;16.58;100.00
12486;BME280;6307;46.804;11.580;2022-08-27T05:06:20;-21348.81;;;16.55;100.00
12486;BME280;6307;46.804;11.580;2022-08-27T05:08:48;-21348.81;;;16.55;100.00
12486;BME280;6307;46.804;11.580;2022-08-27T05:11:16;-21347.31;;;16.50;100.00
12486;BME280;6307;46.804;11.580;2022-08-27T05:13:44;-21346.44;;;16.47;100.00
12486;BME280;6307;46.804;11.580;2022-08-27T05:16:14;-21346.72;;;16.48;100.00
12486;BME280;6307;46.804;11.580;2022-08-27T05:18:45;-21349.13;;;16.56;100.00
12486;BME280;6307;46.804;11.580;2022-08-27T05:21:20;-21349.56;;;16.57;100.00
12486;BME280;6307;46.804;11.580;2022-08-27T05:23:50;-21351.06;;;16.62;100.00
12486;BME280;6307;46.804;11.580;2022-08-27T05:26:19;-21350.47;;;16.60;100.00
12486;BME280;6307;46.804;11.580;2022-08-27T05:28:45;-21352.41;;;16.67;100.00
12486;BME280;6307;46.804;11.580;2022-08-27T05:31:13;-21353.00;;;16.69;100.00
12486;BME280;6307;46.804;11.580;2022-08-27T05:33:41;-21354.19;;;16.73;100.00
12486;BME280;6307;46.804;11.580;2022-08-27T05:36:21;-21352.69;;;16.68;100.00
12486;BME280;6307;46.804;11.580;2022-08-27T05:38:53;-21353.44;;;16.70;100.00
12486;BME280;6307;46.804;11.580;2022-08-27T05:41:23;-21354.19;;;16.73;100.00
12486;BME280;6307;46.804;11.580;2022-08-27T05:43:53;-21353.91;;;16.72;100.00
12486;BME280;6307;46.804;11.580;2022-08-27T05:46:24;-21359.56;;;16.91;100.00
12486;BME280;6307;46.804;11.580;2022-08-27T05:48:54;-21357.19;;;16.83;100.00
12486;BME280;6307;46.804;11.580;2022-08-27T05:51:29;-21358.97;;;16.89;100.00
12486;BME280;6307;46.804;11.580;2022-08-27T05:54:00;-21362.41;;;17.00;100.00
12486;BME280;6307;46.804;11.580;2022-08-27T05:56:34;-21362.09;;;16.99;100.00
12486;BME280;6307;46.804;11.580;2022-08-27T05:59:02;-21368.34;;;17.20;100.00
12486;BME280;6307;46.804;11.580;2022-08-27T06:01:49;-21374.19;;;17.40;100.00
12486;BME280;6307;46.804;11.580;2022-08-27T06:04:18;-21395.34;;;18.11;100.00
12486;BME280;6307;46.804;11.580;2022-08-27T06:06:46;-21414.41;;;18.75;100.00
12486;BME280;6307;46.804;11.580;2022-08-27T06:09:18;-21434.06;;;19.41;100.00
12486;BME280;6307;46.804;11.580;2022-08-27T06:11:46;-21449.84;;;19.94;100.00
12486;BME280;6307;46.804;11.580;2022-08-27T06:14:13;-21457.59;;;20.20;100.00
12486;BME280;6307;46.804;11.580;2022-08-27T06:16:40;-21467.09;;;20.52;100.00
12486;BME280;6307;46.804;11.580;2022-08-27T06:19:07;-21467.25;;;20.52;100.00
12486;BME280;6307;46.804;11.580;2022-08-27T06:21:36;-21473.03;;;20.72;100.00
12486;BME280;6307;46.804;11.580;2022-08-27T06:24:04;-21471.41;;;20.66;100.00
12486;BME280;6307;46.804;11.580;2022-08-27T06:26:30;-21475.13;;;20.79;100.00
12486;BME280;6307;46.804;11.580;2022-08-27T06:29:00;-21466.94;;;20.51;100.00
12486;BME280;6307;46.804;11.580;2022-08-27T06:31:32;-21470.81;;;20.64;100.00
12486;BME280;6307;46.804;11.580;2022-08-27T06:34:04;-21477.94;;;20.88;100.00
12486;BME280;6307;46.804;11.580;2022-08-27T06:36:36;-21481.66;;;21.01;100.00
12486;BME280;6307;46.804;11.580;2022-08-27T06:39:05;-21492.22;;;21.36;100.00
12486;BME280;6307;46.804;11.580;2022-08-27T06:41:33;-21492.81;;;21.38;100.00
12486;BME280;6307;46.804;11.580;2022-08-27T06:44:00;-21482.41;;;21.03;100.00
12486;BME280;6307;46.804;11.580;2022-08-27T06:46:27;-21487.00;;;21.19;100.00
12486;BME280;6307;46.804;11.580;2022-08-27T06:48:57;-21497.13;;;21.53;100.00
12486;BME280;6307;46.804;11.580;2022-08-27T06:51:33;-21501.44;;;21.67;100.00
12486;BME280;6307;46.804;11.580;2022-08-27T06:54:04;-21499.19;;;21.60;100.00
12486;BME280;6307;46.804;11.580;2022-08-27T06:56:32;-21486.28;;;21.16;100.00
12486;BME280;6307;46.804;11.580;2022-08-27T06:59:01;-21479.59;;;20.94;100.00
12486;BME280;6307;46.804;11.580;2022-08-27T07:01:38;-21472.31;;;20.69;100.00
12486;BME280;6307;46.804;11.580;2022-08-27T07:04:08;-21461.31;;;20.32;100.00
12486;BME280;6307;46.804;11.580;2022-08-27T07:06:37;-21459.97;;;20.28;100.00
12486;BME280;6307;46.804;11.580;2022-08-27T07:09:05;-21465.31;;;20.46;100.00
12486;BME280;6307;46.804;11.580;2022-08-27T07:11:32;-21481.22;;;20.99;100.00
12486;BME280;6307;46.804;11.580;2022-08-27T07:13:59;-21486.13;;;21.16;100.00
12486;BME280;6307;46.804;11.580;2022-08-27T07:16:27;-21479.72;;;20.94;100.00
12486;BME280;6307;46.804;11.580;2022-08-27T07:18:55;-21472.31;;;20.69;100.00
12486;BME280;6307;46.804;11.580;2022-08-27T07:21:24;-21475.88;;;20.81;100.00
12486;BME280;6307;46.804;11.580;2022-08-27T07:23:52;-21485.81;;;21.15;100.00
12486;BME280;6307;46.804;11.580;2022-08-27T07:26:20;-21486.13;;;21.16;100.00
12486;BME280;6307;46.804;11.580;2022-08-27T07:28:47;-21505.72;;;21.82;100.00
12486;BME280;6307;46.804;11.580;2022-08-27T07:31:17;-21535.72;;;22.83;100.00
12486;BME280;6307;46.804;11.580;2022-08-27T07:33:45;-21526.22;;;22.51;100.00
12486;BME280;6307;46.804;11.580;2022-08-27T07:36:12;-21534.69;;;22.79;100.00
12486;BME280;6307;46.804;11.580;2022-08-27T07:38:38;-21538.97;;;22.94;100.00
12486;BME280;6307;46.804;11.580;2022-08-27T07:41:08;-21550.25;;;23.32;100.00
12486;BME280;6307;46.804;11.580;2022-08-27T07:43:37;-21560.34;;;23.66;100.00
12486;BME280;6307;46.804;11.580;2022-08-27T07:46:23;-21578.72;;;24.28;100.00
12486;BME280;6307;46.804;11.580;2022-08-27T07:48:50;-21587.00;;;24.56;100.00
12486;BME280;6307;46.804;11.580;2022-08-27T07:51:21;-21573.97;;;24.12;100.00
12486;BME280;6307;46.804;11.580;2022-08-27T07:53:49;-21559.16;;;23.62;100.00
12486;BME280;6307;46.804;11.580;2022-08-27T07:56:17;-21552.31;;;23.39;100.00
12486;BME280;6307;46.804;11.580;2022-08-27T07:58:43;-21548.75;;;23.27;100.00
12486;BME280;6307;46.804;11.580;2022-08-27T08:01:11;-21543.72;;;23.10;100.00
12486;BME280;6307;46.804;11.580;2022-08-27T08:03:39;-21540.75;;;23.00;100.00
12486;BME280;6307;46.804;11.580;2022-08-27T08:06:08;-21536.16;;;22.84;100.00
12486;BME280;6307;46.804;11.580;2022-08-27T08:08:38;-21539.56;;;22.96;100.00
12486;BME280;6307;46.804;11.580;2022-08-27T08:11:09;-21546.69;;;23.20;100.00
12486;BME280;6307;46.804;11.580;2022-08-27T08:13:36;-21561.06;;;23.68;100.00
12486;BME280;6307;46.804;11.580;2022-08-27T08:16:04;-21571.44;;;24.03;100.00
12486;BME280;6307;46.804;11.580;2022-08-27T08:18:31;-21590.84;;;24.69;100.00
12486;BME280;6307;46.804;11.580;2022-08-27T08:21:05;-21610.25;;;25.34;100.00
12486;BME280;6307;46.804;11.580;2022-08-27T08:23:34;-21606.69;;;25.22;100.00
12486;BME280;6307;46.804;11.580;2022-08-27T08:26:01;-21608.63;;;25.29;100.00
12486;BME280;6307;46.804;11.580;2022-08-27T08:28:28;-21618.38;;;25.62;100.00
12486;BME280;6307;46.804;11.580;2022-08-27T08:30:55;-21610.41;;;25.35;100.00
12486;BME280;6307;46.804;11.580;2022-08-27T08:33:22;-21617.63;;;25.59;100.00
12486;BME280;6307;46.804;11.580;2022-08-27T08:35:48;-21625.78;;;25.87;100.00
12486;BME280;6307;46.804;11.580;2022-08-27T08:38:16;-21618.53;;;25.62;100.00
12486;BME280;6307;46.804;11.580;2022-08-27T08:40:47;-21610.53;;;25.35;100.00
12486;BME280;6307;46.804;11.580;2022-08-27T08:43:32;-21621.03;;;25.71;100.00
12486;BME280;6307;46.804;11.580;2022-08-27T08:46:11;-21608.91;;;25.30;100.00
12486;BME280;6307;46.804;11.580;2022-08-27T08:48:52;-21620.16;;;25.68;100.00
12486;BME280;6307;46.804;11.580;2022-08-27T08:51:37;-21633.31;;;26.12;99.49
12486;BME280;6307;46.804;11.580;2022-08-27T08:54:08;-21645.00;;;26.52;99.51
12486;BME280;6307;46.804;11.580;2022-08-27T08:56:50;-21651.66;;;26.74;95.89
12486;BME280;6307;46.804;11.580;2022-08-27T08:59:32;-21648.53;;;26.64;96.79
12486;BME280;6307;46.804;11.580;2022-08-27T09:02:05;-21648.69;;;26.64;96.38
12486;BME280;6307;46.804;11.580;2022-08-27T09:04:34;-21648.97;;;26.65;99.39
12486;BME280;6307;46.804;11.580;2022-08-27T09:10:20;-21635.84;;;26.21;100.00
12486;BME280;6307;46.804;11.580;2022-08-27T09:12:50;-21635.53;;;26.20;100.00
12486;BME280;6307;46.804;11.580;2022-08-27T09:15:27;-21628.28;;;25.95;99.72
12486;BME280;6307;46.804;11.580;2022-08-27T09:18:12;-21608.03;;;25.27;100.00
12486;BME280;6307;46.804;11.580;2022-08-27T09:20:45;-21609.78;;;25.33;100.00
12486;BME280;6307;46.804;11.580;2022-08-27T09:25:55;-21635.09;;;26.18;100.00
12486;BME280;6307;46.804;11.580;2022-08-27T09:28:26;-21641.59;;;26.40;100.00
12486;BME280;6307;46.804;11.580;2022-08-27T09:31:16;-21658.59;;;26.98;97.48
12486;BME280;6307;46.804;11.580;2022-08-27T09:33:45;-21652.69;;;26.78;98.71
12486;BME280;6307;46.804;11.580;2022-08-27T09:36:14;-21668.78;;;27.32;95.67
12486;BME280;6307;46.804;11.580;2022-08-27T09:39:00;-21672.63;;;27.45;93.52
12486;BME280;6307;46.804;11.580;2022-08-27T09:41:40;-21684.56;;;27.85;92.78
12486;BME280;6307;46.804;11.580;2022-08-27T09:44:12;-21691.94;;;28.10;90.46
12486;BME280;6307;46.804;11.580;2022-08-27T09:46:58;-21679.25;;;27.67;91.21
12486;BME280;6307;46.804;11.580;2022-08-27T09:49:27;-21683.53;;;27.82;92.60
12486;BME280;6307;46.804;11.580;2022-08-27T09:51:55;-21680.16;;;27.70;90.65
12486;BME280;6307;46.804;11.580;2022-08-27T09:54:43;-21660.50;;;27.04;92.29
12486;BME280;6307;46.804;11.580;2022-08-27T09:57:14;-21660.34;;;27.03;97.41
12486;BME280;6307;46.804;11.580;2022-08-27T10:00:11;-21654.59;;;26.84;97.30
12486;BME280;6307;46.804;11.580;2022-08-27T10:02:53;-21658.88;;;26.98;95.47
12486;BME280;6307;46.804;11.580;2022-08-27T10:05:37;-21657.09;;;26.92;94.30
12486;BME280;6307;46.804;11.580;2022-08-27T10:11:27;-21679.56;;;27.68;89.37
12486;BME280;6307;46.804;11.580;2022-08-27T10:14:29;-21705.38;;;28.56;85.17
12486;BME280;6307;46.804;11.580;2022-08-27T10:17:05;-21720.41;;;29.07;82.32
12486;BME280;6307;46.804;11.580;2022-08-27T10:20:13;-21690.78;;;28.06;86.24
12486;BME280;6307;46.804;11.580;2022-08-27T10:29:13;-21645.13;;;26.52;97.60
12486;BME280;6307;46.804;11.580;2022-08-27T10:52:29;-21600.19;;;25.00;100.00
12486;BME280;6307;46.804;11.580;2022-08-27T11:03:39;-21598.41;;;24.94;100.00
12486;BME280;6307;46.804;11.580;2022-08-27T11:09:18;-21602.41;;;25.08;100.00
12486;BME280;6307;46.804;11.580;2022-08-27T11:11:53;-21594.84;;;24.82;100.00
12486;BME280;6307;46.804;11.580;2022-08-27T11:14:56;-21581.06;;;24.36;100.00
12486;BME280;6307;46.804;11.580;2022-08-27T11:18:00;-21546.25;;;23.18;100.00
12486;BME280;6307;46.804;11.580;2022-08-27T11:21:03;-21559.44;;;23.63;100.00
12486;BME280;6307;46.804;11.580;2022-08-27T11:26:51;-21565.97;;;23.85;100.00
12486;BME280;6307;46.804;11.580;2022-08-27T11:29:26;-21556.31;;;23.52;100.00
12486;BME280;6307;46.804;11.580;2022-08-27T11:32:14;-21560.34;;;23.66;100.00
12486;BME280;6307;46.804;11.580;2022-08-27T11:35:01;-21567.75;;;23.91;100.00
12486;BME280;6307;46.804;11.580;2022-08-27T11:38:11;-21564.19;;;23.79;100.00
12486;BME280;6307;46.804;11.580;2022-08-27T11:43:21;-21541.19;;;23.01;100.00
12486;BME280;6307;46.804;11.580;2022-08-27T11:46:00;-21548.31;;;23.25;100.00
12486;BME280;6307;46.804;11.580;2022-08-27T11:48:53;-21548.75;;;23.27;100.00
12486;BME280;6307;46.804;11.580;2022-08-27T11:51:31;-21551.44;;;23.36;100.00
12486;BME280;6307;46.804;11.580;2022-08-27T11:54:09;-21542.84;;;23.07;100.00
12486;BME280;6307;46.804;11.580;2022-08-27T11:56:47;-21517.59;;;22.22;100.00
12486;BME280;6307;46.804;11.580;2022-08-27T11:59:30;-21481.66;;;21.01;100.00
12486;BME280;6307;46.804;11.580;2022-08-27T12:02:26;-21462.63;;;20.37;100.00
12486;BME280;6307;46.804;11.580;2022-08-27T12:05:31;-21450.00;;;19.94;100.00
12486;BME280;6307;46.804;11.580;2022-08-27T12:19:22;-21479.44;;;20.93;100.00
12486;BME280;6307;46.804;11.580;2022-08-27T12:22:14;-21473.34;;;20.73;100.00
12486;BME280;6307;46.804;11.580;2022-08-27T12:25:22;-21491.91;;;21.35;100.00
12486;BME280;6307;46.804;11.580;2022-08-27T12:28:00;-21499.63;;;21.61;100.00
12486;BME280;6307;46.804;11.580;2022-08-27T12:36:18;-21501.72;;;21.68;100.00
12486;BME280;6307;46.804;11.580;2022-08-27T12:38:49;-21505.72;;;21.82;100.00
12486;BME280;6307;46.804;11.580;2022-08-27T12:41:32;-21511.22;;;22.00;100.00
12486;BME280;6307;46.804;11.580;2022-08-27T12:44:07;-21502.63;;;21.71;100.00
12486;BME280;6307;46.804;11.580;2022-08-27T12:46:47;-21495.47;;;21.47;100.00
12486;BME280;6307;46.804;11.580;2022-08-27T12:49:23;-21489.09;;;21.26;100.00
12486;BME280;6307;46.804;11.580;2022-08-27T12:51:52;-21494.16;;;21.43;100.00
12486;BME280;6307;46.804;11.580;2022-08-27T13:00:29;-21504.84;;;21.79;100.00
12486;BME280;6307;46.804;11.580;2022-08-27T13:03:36;-21505.13;;;21.80;100.00
12486;BME280;6307;46.804;11.580;2022-08-27T13:09:06;-21519.25;;;22.27;100.00
12486;BME280;6307;46.804;11.580;2022-08-27T13:11:46;-21525.31;;;22.48;100.00
12486;BME280;6307;46.804;11.580;2022-08-27T13:14:20;-21530.38;;;22.65;100.00
12486;BME280;6307;46.804;11.580;2022-08-27T13:16:52;-21528.00;;;22.57;100.00
12486;BME280;6307;46.804;11.580;2022-08-27T13:21:57;-21525.19;;;22.47;100.00
12486;BME280;6307;46.804;11.580;2022-08-27T13:24:43;-21521.47;;;22.35;100.00
12486;BME280;6307;46.804;11.580;2022-08-27T13:27:12;-21528.88;;;22.60;100.00
12486;BME280;6307;46.804;11.580;2022-08-27T13:29:39;-21524.00;;;22.43;100.00
12486;BME280;6307;46.804;11.580;2022-08-27T13:32:08;-21521.75;;;22.36;100.00
12486;BME280;6307;46.804;11.580;2022-08-27T13:34:38;-21523.53;;;22.42;100.00
12486;BME280;6307;46.804;11.580;2022-08-27T13:37:21;-21531.56;;;22.69;100.00
12486;BME280;6307;46.804;11.580;2022-08-27T13:39:57;-21535.41;;;22.82;100.00
12486;BME280;6307;46.804;11.580;2022-08-27T13:42:25;-21536.91;;;22.87;100.00
12486;BME280;6307;46.804;11.580;2022-08-27T13:44:53;-21536.44;;;22.85;100.00
12486;BME280;6307;46.804;11.580;2022-08-27T13:47:27;-21539.56;;;22.96;100.00
12486;BME280;6307;46.804;11.580;2022-08-27T13:50:06;-21540.47;;;22.99;100.00
12486;BME280;6307;46.804;11.580;2022-08-27T13:52:50;-21542.69;;;23.06;100.00
12486;BME280;6307;46.804;11.580;2022-08-27T13:55:45;-21544.59;;;23.13;100.00
12486;BME280;6307;46.804;11.580;2022-08-27T13:58:28;-21545.81;;;23.17;100.00
12486;BME280;6307;46.804;11.580;2022-08-27T14:01:14;-21548.75;;;23.27;100.00
12486;BME280;6307;46.804;11.580;2022-08-27T14:04:01;-21562.25;;;23.72;100.00
12486;BME280;6307;46.804;11.580;2022-08-27T14:06:41;-21576.78;;;24.21;100.00
12486;BME280;6307;46.804;11.580;2022-08-27T14:09:25;-21576.94;;;24.22;100.00
12486;BME280;6307;46.804;11.580;2022-08-27T14:12:07;-21587.00;;;24.56;100.00
12486;BME280;6307;46.804;11.580;2022-08-27T14:14:41;-21587.16;;;24.56;100.00
12486;BME280;6307;46.804;11.580;2022-08-27T14:17:23;-21592.63;;;24.75;100.00
12486;BME280;6307;46.804;11.580;2022-08-27T14:20:01;-21592.03;;;24.73;100.00
12486;BME280;6307;46.804;11.580;2022-08-27T14:22:29;-21595.00;;;24.83;100.00
12486;BME280;6307;46.804;11.580;2022-08-27T14:24:58;-21598.84;;;24.96;100.00
12486;BME280;6307;46.804;11.580;2022-08-27T14:27:25;-21600.31;;;25.01;100.00
12486;BME280;6307;46.804;11.580;2022-08-27T14:29:53;-21610.97;;;25.37;100.00
12486;BME280;6307;46.804;11.580;2022-08-27T14:32:19;-21621.47;;;25.72;100.00
12486;BME280;6307;46.804;11.580;2022-08-27T14:34:45;-21615.28;;;25.51;100.00